createdAt,value
2022-11-21T00:04:53.238Z,10.63
2022-11-21T00:11:38.914Z,10.66
2022-11-21T00:18:26.959Z,10.74
2022-11-21T00:25:13.731Z,11.04
2022-11-21T00:31:59.254Z,11.17
2022-11-21T00:38:47.260Z,11.07
2022-11-21T00:45:32.668Z,11.14
2022-11-21T00:52:19.806Z,11.07
2022-11-21T00:59:07.831Z,10.98
2022-11-21T01:05:53.199Z,10.94
2022-11-21T01:12:38.568Z,10.90
2022-11-21T01:19:26.913Z,10.95
2022-11-21T01:26:16.218Z,10.87
2022-11-21T01:33:01.923Z,10.90
2022-11-21T01:39:50.356Z,10.98
2022-11-21T01:46:35.761Z,11.05
2022-11-21T01:53:21.638Z,11.00
2022-11-21T02:00:14.969Z,10.90
2022-11-21T02:07:02.873Z,10.89
2022-11-21T02:13:48.379Z,10.87
2022-11-21T02:20:36.379Z,10.93
2022-11-21T02:27:24.938Z,10.88
2022-11-21T02:34:10.795Z,10.80
2022-11-21T02:41:03.698Z,10.72
2022-11-21T02:48:02.241Z,10.20
2022-11-21T02:54:49.429Z,10.55
2022-11-21T03:01:34.834Z,10.40
2022-11-21T03:08:22.815Z,10.22
2022-11-21T03:15:11.025Z,10.14
2022-11-21T03:21:56.497Z,10.18
2022-11-21T03:28:45.441Z,10.20
2022-11-21T03:35:30.905Z,10.21
2022-11-21T03:42:16.630Z,10.21
2022-11-21T04:02:53.341Z,10.53
2022-11-21T04:09:38.771Z,10.78
2022-11-21T04:16:24.258Z,10.76
2022-11-21T04:23:12.500Z,10.72
2022-11-21T04:29:57.902Z,10.78
2022-11-21T04:36:43.580Z,10.68
2022-11-21T04:43:31.945Z,10.71
2022-11-21T04:50:20.292Z,10.20
2022-11-21T04:57:06.004Z,10.43
2022-11-21T05:03:56.015Z,10.73
2022-11-21T05:10:53.729Z,10.68
2022-11-21T05:17:39.321Z,10.76
2022-11-21T05:24:27.562Z,10.74
2022-11-21T05:31:13.150Z,10.87
2022-11-21T05:38:02.157Z,10.92
2022-11-21T05:44:50.348Z,10.96
2022-11-21T05:51:36.025Z,10.95
2022-11-21T05:58:21.682Z,10.76
2022-11-21T06:05:11.122Z,10.83
2022-11-21T06:11:56.592Z,10.92
2022-11-21T06:18:44.423Z,10.45
2022-11-21T06:25:32.394Z,10.87
2022-11-21T06:32:17.994Z,10.91
2022-11-21T06:39:03.545Z,10.87
2022-11-21T06:45:51.700Z,10.92
2022-11-21T06:52:37.951Z,11.03
2022-11-21T06:59:23.318Z,11.28
2022-11-21T07:06:11.314Z,11.37
2022-11-21T07:13:13.304Z,11.39
2022-11-21T07:19:58.676Z,11.45
2022-11-21T07:26:46.695Z,11.43
2022-11-21T07:33:32.183Z,11.51
2022-11-21T07:40:17.910Z,11.52
2022-11-21T07:47:05.985Z,11.46
2022-11-21T07:53:51.559Z,11.54
2022-11-21T08:00:40.729Z,11.48
2022-11-21T08:07:28.902Z,11.48
2022-11-21T08:14:14.392Z,11.46
2022-11-21T08:20:59.748Z,11.42
2022-11-21T08:27:47.995Z,11.49
2022-11-21T08:34:35.005Z,11.35
2022-11-21T08:41:32.664Z,11.56
2022-11-21T08:48:20.631Z,11.35
2022-11-21T08:55:06.837Z,11.43
2022-11-21T09:01:53.018Z,11.35
2022-11-21T09:08:41.083Z,11.27
2022-11-21T09:15:39.138Z,11.34
2022-11-21T09:22:24.843Z,11.35
2022-11-21T09:29:15.328Z,11.47
2022-11-21T09:36:03.362Z,11.05
2022-11-21T09:43:16.531Z,11.98
2022-11-21T09:50:06.893Z,12.11
2022-11-21T09:56:52.675Z,12.23
2022-11-21T10:03:47.434Z,12.63
2022-11-21T10:10:53.051Z,12.79
2022-11-21T10:17:55.983Z,12.91
2022-11-21T10:24:52.814Z,13.07
2022-11-21T10:31:43.487Z,13.42
2022-11-21T10:38:31.706Z,13.19
2022-11-21T10:45:20.924Z,13.35
2022-11-21T10:52:16.924Z,13.32
2022-11-21T10:59:02.656Z,13.50
2022-11-21T11:06:00.595Z,13.56
2022-11-21T11:13:17.961Z,13.63
2022-11-21T11:20:40.508Z,13.70
2022-11-21T11:27:31.454Z,13.58
2022-11-21T11:34:20.192Z,13.67
2022-11-21T11:41:20.772Z,13.77
2022-11-21T11:48:12.738Z,13.91
2022-11-21T11:55:08.069Z,13.91
2022-11-21T12:02:01.162Z,13.98
2022-11-21T12:08:55.147Z,13.98
2022-11-21T12:15:52.833Z,14.09
2022-11-21T12:22:38.326Z,14.18
2022-11-21T12:29:51.753Z,14.22
2022-11-21T12:36:48.995Z,14.36
2022-11-21T12:43:47.106Z,13.97
2022-11-21T12:50:55.107Z,14.52
2022-11-21T12:58:03.739Z,14.56
2022-11-21T13:04:53.464Z,14.65
2022-11-21T13:12:02.237Z,14.71
2022-11-21T13:18:53.117Z,14.52
2022-11-21T13:25:48.981Z,14.51
2022-11-21T13:32:42.077Z,14.64
2022-11-21T13:39:36.333Z,14.72
2022-11-21T13:47:01.111Z,14.74
2022-11-21T13:54:29.034Z,14.72
2022-11-21T14:01:30.695Z,14.94
2022-11-21T14:08:24.348Z,14.63
2022-11-21T14:15:27.903Z,14.42
2022-11-21T14:22:34.744Z,14.26
2022-11-21T14:29:22.712Z,14.27
2022-11-21T14:36:11.960Z,14.08
2022-11-21T14:43:02.568Z,14.17
2022-11-21T14:49:55.778Z,14.23
2022-11-21T14:56:41.183Z,14.30
2022-11-21T15:03:29.258Z,14.28
2022-11-21T15:10:32.582Z,14.30
2022-11-21T15:17:23.161Z,14.40
2022-11-21T15:24:37.598Z,14.25
2022-11-21T15:31:24.817Z,14.34
2022-11-21T15:38:27.325Z,14.24
2022-11-21T15:45:29.502Z,14.28
2022-11-21T15:52:16.268Z,13.48
2022-11-21T15:59:02.132Z,14.22
2022-11-21T16:05:50.080Z,14.16
2022-11-21T16:12:35.456Z,14.12
2022-11-21T16:19:20.860Z,14.11
2022-11-21T16:26:09.435Z,13.80
2022-11-21T16:32:55.592Z,14.09
2022-11-21T16:39:41.287Z,14.01
2022-11-21T16:46:29.263Z,13.85
2022-11-21T16:53:14.865Z,13.98
2022-11-21T17:00:00.773Z,13.93
2022-11-21T17:06:51.352Z,14.10
2022-11-21T17:13:37.005Z,14.14
2022-11-21T17:20:22.439Z,14.00
2022-11-21T17:27:10.451Z,13.90
2022-11-21T17:33:58.149Z,13.78
2022-11-21T17:40:44.001Z,13.82
2022-11-21T17:47:32.032Z,13.78
2022-11-21T17:54:17.528Z,13.66
2022-11-21T18:01:05.847Z,13.55
2022-11-21T18:07:53.959Z,13.44
2022-11-21T18:14:39.757Z,13.40
2022-11-21T18:21:28.411Z,13.20
2022-11-21T18:28:16.815Z,13.25
2022-11-21T18:35:02.899Z,13.37
2022-11-21T18:41:56.387Z,13.33
2022-11-21T18:49:01.399Z,13.37
2022-11-21T18:55:48.393Z,13.48
2022-11-21T19:02:36.387Z,13.21
2022-11-21T19:09:21.870Z,13.03
2022-11-21T19:16:09.425Z,12.88
2022-11-21T19:22:57.813Z,12.69
2022-11-21T19:29:43.255Z,12.77
2022-11-21T19:36:28.797Z,12.90
2022-11-21T19:43:16.810Z,13.02
2022-11-21T19:50:02.287Z,13.16
2022-11-21T19:56:47.822Z,13.32
2022-11-21T20:03:36.174Z,13.30
2022-11-21T20:10:21.907Z,13.36
2022-11-21T20:17:07.490Z,13.44
2022-11-21T20:23:56.006Z,13.48
2022-11-21T20:30:41.518Z,13.50
2022-11-21T20:37:26.989Z,13.55
2022-11-21T20:58:32.826Z,13.25
2022-11-21T21:05:20.892Z,13.29
2022-11-21T21:12:06.745Z,13.20
2022-11-21T21:18:54.131Z,13.03
2022-11-21T21:25:42.875Z,12.66
2022-11-21T21:32:28.262Z,12.59
2022-11-21T21:39:13.829Z,12.52
2022-11-21T21:46:06.774Z,12.40
2022-11-21T21:52:52.200Z,12.49
2022-11-21T21:59:37.715Z,12.58
2022-11-21T22:06:26.339Z,12.50
2022-11-21T22:13:11.714Z,12.56
2022-11-21T22:19:57.225Z,12.62
2022-11-21T22:26:45.812Z,12.47
2022-11-21T22:33:31.343Z,12.53
2022-11-21T22:40:17.420Z,12.63
2022-11-21T22:47:05.371Z,12.64
2022-11-21T22:53:51.493Z,12.58
2022-11-21T23:00:37.112Z,12.58
2022-11-21T23:07:25.255Z,12.46
2022-11-21T23:14:10.795Z,12.54
2022-11-21T23:20:56.530Z,12.34
2022-11-21T23:27:44.503Z,12.04
2022-11-21T23:34:30.055Z,11.94
2022-11-21T23:41:15.765Z,11.90
2022-11-21T23:48:03.744Z,11.80
2022-11-21T23:54:49.139Z,11.84
